GosportINWX Station Historical Data
 
Daily Summary for April 04, 2020 Units:  English    Metric   Both
Daily Weekly Monthly Yearly Custom
  Current: High: Low: Average:
Temperature: 51.6 °F 59 °F 49.6 °F 52.8 °F
Dew Point: 45 °F 45.1 °F 41.3 °F 43 °F
Humidity: 78% 78% 59% 69%
Wind Speed: 0mph 0.2mph 0mph 0mph
Wind Gust: 0mph 3.1mph - -
WindCalm - - North
Pressure: 29.93 in 29.94 in 29.91 in -
Precipitation: 0.00 in      
Historical Graphs
 
 
Tabular Data for April 04, 2020
Time Temperature Dew Point Pressure Wind Wind Speed Wind Gust Humidity Rainfall Rate (Hourly) solar
00:04 59 °F 44.7 °F 29.94 in Calm     59% 0.00 in W/m2
00:09 58.9 °F 44.9 °F 29.94 in Calm     59.7% 0.00 in W/m2
00:14 58.7 °F 45.1 °F 29.94 in Calm     60.5% 0.00 in W/m2
00:19 58.5 °F 44.7 °F 29.93 in Calm     60% 0.00 in W/m2
00:24 58.3 °F 44.8 °F 29.93 in Calm     60.7% 0.00 in W/m2
00:29 58.1 °F 45 °F 29.93 in Calm     61.7% 0.00 in W/m2
00:34 58.1 °F 45.1 °F 29.93 in Calm     62% 0.00 in W/m2
00:39 57.8 °F 44.5 °F 29.93 in Calm     61.1% 0.00 in W/m2
00:44 57.7 °F 44.5 °F 29.93 in Calm     61.3% 0.00 in W/m2
00:49 57.5 °F 44.4 °F 29.93 in Calm     61.5% 0.00 in W/m2
00:54 57.3 °F 44.4 °F 29.93 in Calm     62% 0.00 in W/m2
00:59 57.2 °F 44.2 °F 29.93 in Calm     61.7% 0.00 in W/m2
01:04 57.1 °F 44.1 °F 29.93 in Calm     61.7% 0.00 in W/m2
01:09 56.9 °F 44.1 °F 29.93 in Calm     62.1% 0.00 in W/m2
01:14 56.6 °F 44.1 °F 29.93 in Calm     63% 0.00 in W/m2
01:19 56.2 °F 44 °F 29.93 in Calm     63.6% 0.00 in W/m2
01:24 55.9 °F 43.4 °F 29.93 in Calm     63% 0.00 in W/m2
01:29 55.5 °F 43.1 °F 29.93 in Calm     63% 0.00 in W/m2
01:34 55.1 °F 42.7 °F 29.92 in Calm     63% 0.00 in W/m2
01:39 54.8 °F 42.5 °F 29.92 in Calm     63.2% 0.00 in W/m2
01:44 54.7 °F 42.7 °F 29.92 in Calm     64% 0.00 in W/m2
01:49 54.4 °F 42.5 °F 29.92 in Calm     64% 0.00 in W/m2
01:54 54.2 °F 42.3 °F 29.92 in Calm     64% 0.00 in W/m2
01:59 54.1 °F 42.6 °F 29.92 in Calm     65% 0.00 in W/m2
02:04 54 °F 42.5 °F 29.92 in Calm     65% 0.00 in W/m2
02:09 53.9 °F 42.4 °F 29.92 in Calm     65.1% 0.00 in W/m2
02:14 53.3 °F 42.3 °F 29.92 in Calm     66% 0.00 in W/m2
02:19 53.2 °F 42.2 °F 29.92 in Calm     66% 0.00 in W/m2
02:24 53.1 °F 42.4 °F 29.92 in Calm     67% 0.00 in W/m2
02:29 53.1 °F 42.3 °F 29.92 in Calm     67% 0.00 in W/m2
02:34 52.9 °F 41.9 °F 29.91 in Calm     66.2% 0.00 in W/m2
02:39 52.7 °F 41.8 °F 29.91 in Calm     66.2% 0.00 in W/m2
02:44 52.5 °F 42.1 °F 29.92 in Calm     67.5% 0.00 in W/m2
02:49 52.3 °F 42.1 °F 29.91 in Calm     68% 0.00 in W/m2
02:54 52.2 °F 42.2 °F 29.92 in Calm     68.4% 0.00 in W/m2
02:59 51.9 °F 41.7 °F 29.92 in Calm     68.2% 0.00 in W/m2
03:04 51.6 °F 41.8 °F 29.91 in Calm     68.8% 0.00 in W/m2
03:09 51.4 °F 41.6 °F 29.92 in Calm     69% 0.00 in W/m2
03:14 51.3 °F 41.4 °F 29.92 in Calm     69% 0.00 in W/m2
03:19 51.3 °F 41.4 °F 29.92 in Calm     69% 0.00 in W/m2
03:24 51.1 °F 41.4 °F 29.92 in Calm     69.2% 0.00 in W/m2
03:29 51.1 °F 41.6 °F 29.92 in Calm     70% 0.00 in W/m2
03:34 50.9 °F 41.5 °F 29.92 in Calm   1.3 mph 70% 0.00 in W/m2
03:39 50.9 °F 41.5 °F 29.92 in Calm   1.3 mph 70.2% 0.00 in W/m2
03:44 50.7 °F 41.7 °F 29.92 in Calm   1.3 mph 71% 0.00 in W/m2
03:49 50.5 °F 41.5 °F 29.92 in Calm   1.3 mph 71% 0.00 in W/m2
03:54 50.5 °F 41.5 °F 29.92 in Calm     71% 0.00 in W/m2
03:59 50.4 °F 41.3 °F 29.92 in Calm     71% 0.00 in W/m2
04:04 50.4 °F 41.5 °F 29.92 in Calm     71.5% 0.00 in W/m2
04:09 50.4 °F 41.7 °F 29.92 in Calm     72.1% 0.00 in W/m2
04:14 50.3 °F 42 °F 29.92 in Calm     73% 0.00 in W/m2
04:19 50.2 °F 41.9 °F 29.92 in Calm     73% 0.00 in W/m2
04:24 50 °F 41.7 °F 29.92 in Calm     73.1% 0.00 in W/m2
04:29 49.8 °F 41.9 °F 29.92 in Calm     74% 0.00 in W/m2
04:34 49.7 °F 41.9 °F 29.92 in Calm     74.4% 0.00 in W/m2
04:39 49.6 °F 42 °F 29.91 in Calm     75% 0.00 in W/m2
04:44 49.6 °F 42 °F 29.92 in Calm     75% 0.00 in W/m2
04:49 49.8 °F 42.2 °F 29.92 in Calm     75% 0.00 in W/m2
04:54 49.9 °F 42.1 °F 29.92 in Calm     74.6% 0.00 in W/m2
04:59 50.1 °F 42.2 °F 29.92 in Calm     74.3% 0.00 in W/m2
05:04 50.2 °F 42.6 °F 29.92 in Calm     75% 0.00 in W/m2
05:09 50.2 °F 42.6 °F 29.92 in Calm     75% 0.00 in W/m2
05:14 50.2 °F 42.6 °F 29.92 in Calm   1.3 mph 75% 0.00 in W/m2
05:19 50.3 °F 42.6 °F 29.92 in Calm   1.3 mph 75% 0.00 in W/m2
05:24 50.4 °F 43.1 °F 29.92 in North 0.2 mph 3.1 mph 75.8% 0.00 in W/m2
05:29 50.5 °F 43.3 °F 29.92 in Calm   3.1 mph 76% 0.00 in W/m2
05:34 50.6 °F 43.4 °F 29.92 in Calm   3.1 mph 76% 0.00 in W/m2
05:39 50.7 °F 43.4 °F 29.92 in Calm   1.3 mph 76% 0.00 in W/m2
05:44 50.9 °F 43.9 °F 29.92 in Calm   1.3 mph 76.8% 0.00 in W/m2
05:49 51.1 °F 44.1 °F 29.92 in Calm   1.3 mph 77% 0.00 in W/m2
05:54 51.3 °F 44.3 °F 29.92 in Calm     77% 0.00 in W/m2
05:59 51.4 °F 44.5 °F 29.92 in Calm   1.3 mph 77% 0.00 in W/m2
06:04 51.4 °F 44.5 °F 29.92 in Calm   1.3 mph 77% 0.00 in W/m2
06:09 51.4 °F 44.5 °F 29.91 in Calm   1.3 mph 76.9% 0.00 in W/m2
06:14 51.4 °F 44.3 °F 29.91 in Calm     76.8% 0.00 in W/m2
06:19 51.5 °F 44.6 °F 29.92 in Calm     77% 0.00 in W/m2
06:24 51.6 °F 44.6 °F 29.92 in Calm     77% 0.00 in W/m2
06:29 51.6 °F 45 °F 29.92 in Calm     78% 0.00 in W/m2
06:34 51.6 °F 45 °F 29.92 in Calm     78% 0.00 in W/m2
06:39 51.6 °F 45 °F 29.92 in Calm     78% 0.00 in W/m2
06:40 51.6 °F 45 °F 29.93 in Calm     78% 0.00 in W/m2
Gosport, Indiana, USA
Compliments of Weather Underground - 4 mb